createdAt,value
2023-01-22T00:00:06.892Z,4.85
2023-01-22T00:02:36.472Z,4.45
2023-01-22T00:05:04.275Z,3.72
2023-01-22T00:07:30.937Z,4.40
2023-01-22T00:09:57.721Z,3.55
2023-01-22T00:12:24.313Z,3.08
2023-01-22T00:14:51.015Z,3.50
2023-01-22T00:17:17.704Z,3.83
2023-01-22T00:19:44.369Z,3.22
2023-01-22T00:22:12.273Z,3.28
2023-01-22T00:24:41.669Z,3.10
2023-01-22T00:27:08.417Z,2.70
2023-01-22T00:29:35.234Z,3.20
2023-01-22T00:32:02.237Z,2.95
2023-01-22T00:34:29.404Z,3.83
2023-01-22T00:36:56.220Z,3.17
2023-01-22T00:39:22.990Z,3.35
2023-01-22T00:41:49.904Z,3.20
2023-01-22T00:44:17.040Z,2.50
2023-01-22T00:46:43.908Z,3.35
2023-01-22T00:49:12.584Z,2.78
2023-01-22T00:51:39.753Z,3.88
2023-01-22T00:54:07.062Z,2.75
2023-01-22T00:56:33.718Z,3.25
2023-01-22T00:59:00.354Z,3.13
2023-01-22T01:01:27.125Z,3.05
2023-01-22T01:03:53.817Z,2.88
2023-01-22T01:06:22.308Z,3.10
2023-01-22T01:08:49.899Z,2.70
2023-01-22T01:11:23.396Z,3.78
2023-01-22T01:13:52.103Z,2.95
2023-01-22T01:16:23.831Z,3.25
2023-01-22T01:18:50.650Z,3.58
2023-01-22T01:21:19.197Z,2.90
2023-01-22T01:23:46.987Z,2.40
2023-01-22T01:26:16.211Z,2.88
2023-01-22T01:28:43.575Z,3.50
2023-01-22T01:31:13.388Z,3.00
2023-01-22T01:33:41.140Z,3.03
2023-01-22T01:36:12.505Z,2.63
2023-01-22T01:38:39.263Z,3.20
2023-01-22T01:41:06.806Z,2.60
2023-01-22T01:43:34.392Z,2.63
2023-01-22T01:46:04.411Z,2.60
2023-01-22T01:48:36.689Z,2.45
2023-01-22T01:51:19.428Z,2.92
2023-01-22T01:53:49.044Z,2.60
2023-01-22T01:56:21.485Z,3.38
2023-01-22T01:58:51.411Z,2.35
2023-01-22T02:01:19.085Z,3.30
2023-01-22T02:03:47.573Z,2.33
2023-01-22T02:06:16.920Z,1.93
2023-01-22T02:11:11.673Z,3.17
2023-01-22T02:13:43.217Z,3.20
2023-01-22T02:16:11.718Z,2.75
2023-01-22T02:18:38.440Z,2.57
2023-01-22T02:21:30.328Z,2.67
2023-01-22T02:23:57.874Z,4.40
2023-01-22T02:26:24.539Z,2.83
2023-01-22T02:28:51.182Z,2.40
2023-01-22T02:31:17.933Z,2.30
2023-01-22T02:33:44.554Z,2.15
2023-01-22T02:36:11.226Z,2.72
2023-01-22T02:38:37.829Z,3.28
2023-01-22T02:41:05.420Z,2.47
2023-01-22T02:43:32.075Z,2.20
2023-01-22T02:45:58.811Z,2.35
2023-01-22T02:48:25.559Z,2.58
2023-01-22T02:50:52.400Z,2.30
2023-01-22T02:53:19.035Z,2.30
2023-01-22T02:55:47.158Z,2.38
2023-01-22T02:58:14.608Z,2.80
2023-01-22T03:00:41.254Z,2.53
2023-01-22T03:03:08.306Z,2.30
2023-01-22T03:05:35.035Z,2.45
2023-01-22T03:08:01.780Z,2.30
2023-01-22T03:10:28.414Z,2.40
2023-01-22T03:13:13.643Z,2.53
2023-01-22T03:15:59.271Z,2.30
2023-01-22T03:18:44.472Z,2.95
2023-01-22T03:21:18.813Z,2.97
2023-01-22T03:23:48.187Z,2.10
2023-01-22T03:28:41.462Z,2.30
2023-01-22T03:31:08.680Z,2.08
2023-01-22T03:33:35.646Z,1.75
2023-01-22T03:36:04.853Z,2.17
2023-01-22T03:38:32.153Z,2.65
2023-01-22T03:41:11.425Z,2.45
2023-01-22T03:46:06.196Z,2.10
2023-01-22T03:48:33.044Z,2.40
2023-01-22T03:51:16.487Z,2.13
2023-01-22T03:53:44.690Z,2.38
2023-01-22T03:56:13.948Z,2.35
2023-01-22T03:58:41.236Z,2.83
2023-01-22T04:01:10.334Z,2.17
2023-01-22T04:03:37.174Z,2.10
2023-01-22T04:06:05.585Z,2.67
2023-01-22T04:08:34.152Z,2.43
2023-01-22T04:11:01.511Z,2.17
2023-01-22T04:13:29.957Z,2.38
2023-01-22T04:15:56.978Z,2.47
2023-01-22T04:18:24.089Z,2.70
2023-01-22T04:20:52.056Z,3.13
2023-01-22T04:23:20.066Z,7.05
2023-01-22T04:25:47.393Z,3.97
2023-01-22T04:28:15.272Z,5.35
2023-01-22T04:30:43.778Z,10.00
2023-01-22T04:33:10.943Z,3.80
2023-01-22T04:35:38.276Z,3.25
2023-01-22T04:38:06.190Z,2.80
2023-01-22T04:40:33.079Z,3.08
2023-01-22T04:43:07.265Z,3.75
2023-01-22T04:45:34.138Z,4.18
2023-01-22T04:48:02.253Z,3.90
2023-01-22T04:50:32.436Z,3.80
2023-01-22T04:53:00.126Z,3.75
2023-01-22T04:55:28.079Z,3.50
2023-01-22T04:57:56.424Z,3.63
2023-01-22T05:00:23.730Z,3.67
2023-01-22T05:02:50.847Z,3.45
2023-01-22T05:05:17.631Z,3.95
2023-01-22T05:07:44.379Z,3.55
2023-01-22T05:10:11.241Z,3.75
2023-01-22T05:12:37.879Z,3.17
2023-01-22T05:15:12.221Z,4.25
2023-01-22T05:17:49.271Z,3.70
2023-01-22T05:20:16.455Z,4.50
2023-01-22T05:22:43.316Z,3.78
2023-01-22T05:25:09.983Z,5.38
2023-01-22T05:27:36.636Z,4.88
2023-01-22T05:30:04.433Z,3.67
2023-01-22T05:32:31.039Z,4.82
2023-01-22T05:34:57.689Z,5.05
2023-01-22T05:37:24.327Z,5.70
2023-01-22T05:39:51.061Z,3.97
2023-01-22T05:42:17.763Z,4.97
2023-01-22T05:44:44.447Z,4.47
2023-01-22T05:47:13.069Z,3.65
2023-01-22T05:49:40.263Z,4.07
2023-01-22T05:52:10.534Z,4.28
2023-01-22T05:54:39.109Z,4.97
2023-01-22T05:57:06.157Z,4.87
2023-01-22T05:59:33.272Z,4.95
2023-01-22T06:01:59.955Z,4.45
2023-01-22T06:04:26.764Z,4.40
2023-01-22T06:06:53.512Z,5.45
2023-01-22T06:09:20.334Z,5.10
2023-01-22T06:11:47.028Z,4.88
2023-01-22T06:14:13.755Z,5.35
2023-01-22T06:16:40.441Z,5.60
2023-01-22T06:19:07.234Z,8.75
2023-01-22T06:21:33.875Z,7.00
2023-01-22T06:24:00.559Z,7.18
2023-01-22T06:26:27.232Z,5.65
2023-01-22T06:28:55.253Z,6.70
2023-01-22T06:31:22.200Z,5.75
2023-01-22T06:33:49.067Z,5.78
2023-01-22T06:36:15.885Z,9.07
2023-01-22T06:38:42.463Z,5.63
2023-01-22T06:41:09.712Z,8.88
2023-01-22T06:43:37.585Z,7.63
2023-01-22T06:46:05.431Z,6.38
2023-01-22T06:48:32.163Z,7.05
2023-01-22T06:51:00.005Z,6.95
2023-01-22T06:53:27.512Z,6.03
2023-01-22T06:55:54.472Z,6.75
2023-01-22T06:58:21.095Z,5.68
2023-01-22T07:00:47.739Z,4.95
2023-01-22T07:03:14.405Z,5.97
2023-01-22T07:05:41.087Z,4.93
2023-01-22T07:08:14.232Z,5.63
2023-01-22T07:10:41.100Z,5.57
2023-01-22T07:13:10.219Z,6.07
2023-01-22T07:15:36.933Z,5.10
2023-01-22T07:18:03.813Z,5.80
2023-01-22T07:20:30.495Z,7.25
2023-01-22T07:22:59.889Z,6.47
2023-01-22T07:25:27.626Z,5.70
2023-01-22T07:28:04.338Z,5.30
2023-01-22T07:30:31.108Z,5.32
2023-01-22T07:33:01.998Z,5.95
2023-01-22T07:35:29.380Z,6.00
2023-01-22T07:37:58.907Z,6.50
2023-01-22T07:40:26.041Z,7.05
2023-01-22T07:42:53.623Z,6.60
2023-01-22T07:45:21.250Z,5.90
2023-01-22T07:47:59.109Z,5.47
2023-01-22T07:50:31.091Z,6.63
2023-01-22T07:52:58.313Z,4.93
2023-01-22T07:55:25.000Z,5.80
2023-01-22T07:58:03.636Z,6.47
2023-01-22T08:00:30.808Z,4.30
2023-01-22T08:02:57.862Z,4.88
2023-01-22T08:05:24.606Z,4.35
2023-01-22T08:07:51.315Z,4.60
2023-01-22T08:10:18.277Z,4.25
2023-01-22T08:12:46.504Z,5.25
2023-01-22T08:15:14.209Z,3.83
2023-01-22T08:17:41.448Z,4.13
2023-01-22T08:20:09.470Z,4.38
2023-01-22T08:22:36.149Z,5.63
2023-01-22T08:25:02.871Z,4.82
2023-01-22T08:27:29.527Z,4.72
2023-01-22T08:29:56.171Z,4.60
2023-01-22T08:32:22.960Z,5.32
2023-01-22T08:34:50.744Z,6.20
2023-01-22T08:37:17.408Z,5.45
2023-01-22T08:39:44.003Z,5.78
2023-01-22T08:42:10.639Z,4.82
2023-01-22T08:44:37.249Z,5.20
2023-01-22T08:47:04.030Z,4.20
2023-01-22T08:49:30.987Z,5.75
2023-01-22T08:51:57.982Z,4.45
2023-01-22T08:54:26.257Z,5.18
2023-01-22T08:56:53.640Z,7.13
2023-01-22T08:59:20.332Z,3.88
2023-01-22T09:01:46.969Z,6.82
2023-01-22T09:04:13.599Z,4.80
2023-01-22T09:06:40.309Z,5.55
2023-01-22T09:09:07.486Z,3.92
2023-01-22T09:11:34.405Z,4.20
2023-01-22T09:14:01.099Z,4.80
2023-01-22T09:16:28.191Z,4.25
2023-01-22T09:18:54.856Z,6.07
2023-01-22T09:21:21.507Z,4.70
2023-01-22T09:23:48.153Z,8.10
2023-01-22T09:26:14.827Z,5.53
2023-01-22T09:28:41.516Z,5.90
2023-01-22T09:31:12.053Z,4.70
2023-01-22T09:33:39.027Z,6.15
2023-01-22T09:36:10.969Z,4.78
2023-01-22T09:38:38.447Z,6.50
2023-01-22T09:41:13.856Z,6.82
2023-01-22T09:43:57.711Z,6.70
2023-01-22T09:46:47.330Z,5.88
2023-01-22T09:49:16.701Z,5.95
2023-01-22T09:54:15.599Z,6.50
2023-01-22T09:56:47.425Z,5.63
2023-01-22T09:59:18.205Z,5.45
2023-01-22T10:02:28.071Z,6.05
2023-01-22T10:05:05.220Z,5.72
2023-01-22T10:07:37.084Z,5.40
2023-01-22T10:10:19.763Z,4.65
2023-01-22T10:12:56.149Z,8.65
2023-01-22T10:15:24.269Z,5.88
2023-01-22T10:17:52.239Z,5.68
2023-01-22T10:20:21.125Z,7.03
2023-01-22T10:22:49.016Z,5.95
2023-01-22T10:25:16.649Z,4.80
2023-01-22T10:27:46.003Z,4.82
2023-01-22T10:32:42.003Z,7.47
2023-01-22T10:35:11.761Z,5.50
2023-01-22T10:37:49.903Z,6.10
2023-01-22T10:40:26.253Z,4.65
2023-01-22T10:43:15.794Z,5.80
2023-01-22T10:45:57.297Z,5.57
2023-01-22T10:48:24.183Z,5.60
2023-01-22T10:51:02.115Z,7.30
2023-01-22T10:53:34.985Z,5.80
2023-01-22T10:56:04.471Z,6.35
2023-01-22T10:58:34.898Z,6.43
2023-01-22T11:01:21.885Z,7.68
2023-01-22T11:03:48.646Z,9.43
2023-01-22T11:06:44.854Z,8.90
2023-01-22T11:09:19.543Z,6.97
2023-01-22T11:12:00.526Z,6.63
2023-01-22T11:14:35.473Z,7.07
2023-01-22T11:17:14.457Z,7.40
2023-01-22T11:19:48.116Z,6.50
2023-01-22T11:22:26.271Z,7.93
2023-01-22T11:24:53.283Z,8.95
2023-01-22T11:27:34.198Z,6.78
2023-01-22T11:30:34.623Z,6.45
2023-01-22T11:33:13.346Z,6.70
2023-01-22T11:36:09.487Z,6.10
2023-01-22T11:38:54.031Z,6.90
2023-01-22T11:41:56.574Z,10.48
2023-01-22T11:44:23.112Z,7.93
2023-01-22T11:46:58.765Z,9.50
2023-01-22T11:50:07.221Z,8.75
2023-01-22T11:52:58.935Z,9.07
2023-01-22T11:55:28.259Z,9.18
2023-01-22T12:02:57.388Z,10.93
2023-01-22T12:05:40.556Z,7.60
2023-01-22T12:08:12.944Z,9.27
2023-01-22T12:11:08.761Z,11.13
2023-01-22T12:13:47.523Z,8.52
2023-01-22T12:16:23.284Z,10.25
2023-01-22T12:18:56.004Z,9.82
2023-01-22T12:21:53.010Z,9.68
2023-01-22T12:24:29.339Z,12.23
2023-01-22T12:27:41.744Z,14.23
2023-01-22T12:30:26.877Z,12.40
2023-01-22T12:32:58.922Z,12.88
2023-01-22T12:35:29.382Z,13.98
2023-01-22T12:38:07.789Z,15.75
2023-01-22T12:41:02.296Z,13.83
2023-01-22T12:43:50.715Z,17.08
2023-01-22T12:46:34.129Z,17.00
2023-01-22T12:49:12.296Z,17.40
2023-01-22T12:51:43.595Z,18.40
2023-01-22T12:54:33.655Z,17.65
2023-01-22T12:57:14.942Z,17.23
2023-01-22T12:59:48.770Z,17.95
2023-01-22T13:02:18.277Z,17.45
2023-01-22T13:04:45.056Z,18.63
2023-01-22T13:07:39.727Z,18.20
2023-01-22T13:10:31.486Z,17.30
2023-01-22T13:13:34.475Z,16.08
2023-01-22T13:16:07.648Z,19.93
2023-01-22T13:18:41.857Z,18.23
2023-01-22T13:21:14.092Z,17.30
2023-01-22T13:23:43.280Z,23.38
2023-01-22T13:26:22.222Z,18.77
2023-01-22T13:29:01.335Z,23.52
2023-01-22T13:31:28.036Z,18.73
2023-01-22T13:33:58.888Z,20.15
2023-01-22T13:36:27.447Z,16.52
2023-01-22T13:38:57.192Z,18.20
2023-01-22T13:41:30.689Z,15.40
2023-01-22T13:43:57.701Z,16.13
2023-01-22T13:46:26.247Z,16.67
2023-01-22T13:49:11.016Z,15.17
2023-01-22T13:51:38.124Z,15.45
2023-01-22T13:54:06.132Z,16.10
2023-01-22T13:56:33.159Z,14.63
2023-01-22T13:59:38.482Z,14.52
2023-01-22T14:02:35.213Z,14.70
2023-01-22T14:05:02.439Z,13.75
2023-01-22T14:07:39.011Z,13.43
2023-01-22T14:10:20.255Z,13.43
2023-01-22T14:12:58.689Z,13.73
2023-01-22T14:15:25.283Z,13.77
2023-01-22T14:17:51.955Z,15.07
2023-01-22T14:20:19.040Z,14.70
2023-01-22T14:22:45.825Z,17.08
2023-01-22T14:25:12.439Z,15.93
2023-01-22T14:27:47.824Z,18.10
2023-01-22T14:30:17.595Z,15.18
2023-01-22T14:32:45.532Z,15.75
2023-01-22T14:35:21.087Z,17.35
2023-01-22T14:37:48.163Z,17.70
2023-01-22T14:40:16.622Z,16.33
2023-01-22T14:42:43.550Z,16.33
2023-01-22T14:45:11.095Z,15.30
2023-01-22T14:47:37.728Z,14.25
2023-01-22T14:50:05.787Z,15.45
2023-01-22T14:52:32.600Z,15.48
2023-01-22T14:54:59.189Z,16.23
2023-01-22T14:57:26.057Z,14.80
2023-01-22T14:59:52.815Z,14.15
2023-01-22T15:02:19.584Z,16.42
2023-01-22T15:04:47.296Z,15.93
2023-01-22T15:07:14.159Z,15.35
2023-01-22T15:09:40.902Z,15.10
2023-01-22T15:12:07.683Z,17.15
2023-01-22T15:14:34.368Z,17.27
2023-01-22T15:17:01.167Z,15.93
2023-01-22T15:19:29.456Z,15.80
2023-01-22T15:21:58.845Z,15.07
2023-01-22T15:24:26.818Z,16.23
2023-01-22T15:26:53.540Z,15.30
2023-01-22T15:29:20.238Z,20.05
2023-01-22T15:31:46.980Z,18.25
2023-01-22T15:34:13.657Z,17.92
2023-01-22T15:36:40.280Z,15.48
2023-01-22T15:39:07.728Z,13.38
2023-01-22T15:41:36.358Z,14.00
2023-01-22T15:44:05.481Z,12.50
2023-01-22T15:46:34.975Z,14.10
2023-01-22T15:49:02.352Z,12.80
2023-01-22T15:51:30.021Z,10.55
2023-01-22T15:53:59.185Z,10.57
2023-01-22T15:56:28.640Z,11.73
2023-01-22T15:58:56.615Z,9.95
2023-01-22T16:01:24.039Z,10.48
2023-01-22T16:03:50.728Z,9.27
2023-01-22T16:06:22.523Z,10.63
2023-01-22T16:08:50.388Z,11.40
2023-01-22T16:11:17.487Z,42.90
2023-01-22T16:13:44.385Z,49.30
2023-01-22T16:16:21.889Z,83.20
2023-01-22T16:18:49.990Z,17.23
2023-01-22T16:21:18.087Z,13.82
2023-01-22T16:23:46.279Z,13.13
2023-01-22T16:26:18.603Z,13.02
2023-01-22T16:28:47.877Z,12.73
2023-01-22T16:31:17.841Z,14.88
2023-01-22T16:33:46.461Z,15.00
2023-01-22T16:36:16.290Z,18.00
2023-01-22T16:38:42.992Z,17.40
2023-01-22T16:41:24.458Z,13.45
2023-01-22T16:44:02.061Z,14.60
2023-01-22T16:46:31.326Z,15.98
2023-01-22T16:49:04.407Z,14.38
2023-01-22T16:51:39.736Z,14.30
2023-01-22T16:54:07.474Z,12.95
2023-01-22T16:56:35.218Z,12.80
2023-01-22T16:59:01.859Z,14.90
2023-01-22T17:01:29.960Z,15.68
2023-01-22T17:03:56.953Z,12.73
2023-01-22T17:06:31.517Z,12.60
2023-01-22T17:08:58.390Z,12.57
2023-01-22T17:11:24.990Z,13.27
2023-01-22T17:13:52.258Z,10.90
2023-01-22T17:16:19.467Z,13.23
2023-01-22T17:18:46.250Z,13.65
2023-01-22T17:21:16.088Z,12.63
2023-01-22T17:23:42.936Z,12.32
2023-01-22T17:26:12.132Z,12.02
2023-01-22T17:28:39.617Z,11.40
2023-01-22T17:31:11.756Z,13.55
2023-01-22T17:33:39.211Z,13.85
2023-01-22T17:36:06.792Z,12.68
2023-01-22T17:38:38.366Z,13.35
2023-01-22T17:41:16.034Z,13.07
2023-01-22T17:43:45.012Z,14.32
2023-01-22T17:46:18.568Z,12.98
2023-01-22T17:48:46.590Z,12.43
2023-01-22T17:51:16.958Z,12.20
2023-01-22T17:53:45.540Z,13.23
2023-01-22T17:56:21.811Z,12.73
2023-01-22T17:58:52.488Z,11.20
2023-01-22T18:01:21.325Z,13.40
2023-01-22T18:03:48.646Z,12.10
2023-01-22T18:06:16.157Z,10.98
2023-01-22T18:08:43.184Z,12.15
2023-01-22T18:11:13.981Z,15.43
2023-01-22T18:13:40.998Z,14.20
2023-01-22T18:16:12.102Z,12.13
2023-01-22T18:18:38.805Z,12.35
2023-01-22T18:21:14.181Z,14.18
2023-01-22T18:23:41.077Z,13.55
2023-01-22T18:26:08.272Z,13.52
2023-01-22T18:28:35.064Z,13.40
2023-01-22T18:31:13.852Z,11.43
2023-01-22T18:33:42.403Z,14.02
2023-01-22T18:36:15.934Z,14.23
2023-01-22T18:38:43.960Z,12.75
2023-01-22T18:41:20.196Z,12.38
2023-01-22T18:43:48.730Z,14.77
2023-01-22T18:46:16.762Z,14.73
2023-01-22T18:48:44.010Z,13.43
2023-01-22T18:51:15.918Z,13.32
2023-01-22T18:53:42.762Z,14.02
2023-01-22T18:56:11.511Z,15.23
2023-01-22T18:58:39.289Z,13.93
2023-01-22T19:01:10.033Z,13.50
2023-01-22T19:03:36.735Z,12.30
2023-01-22T19:06:05.427Z,13.43
2023-01-22T19:08:32.037Z,15.40
2023-01-22T19:11:05.347Z,14.18
2023-01-22T19:13:35.201Z,13.30
2023-01-22T19:16:03.673Z,12.88
2023-01-22T19:18:30.596Z,13.60
2023-01-22T19:21:03.444Z,12.65
2023-01-22T19:23:30.115Z,14.43
2023-01-22T19:26:04.684Z,15.68
2023-01-22T19:28:31.310Z,14.10
2023-01-22T19:30:57.982Z,12.77
2023-01-22T19:33:27.759Z,13.07
2023-01-22T19:35:57.724Z,14.35
2023-01-22T19:38:24.363Z,13.27
2023-01-22T19:40:51.103Z,12.75
2023-01-22T19:43:17.759Z,13.55
2023-01-22T19:45:44.399Z,13.70
2023-01-22T19:48:11.482Z,14.23
2023-01-22T19:50:41.483Z,15.80
2023-01-22T19:53:08.268Z,15.98
2023-01-22T19:55:36.837Z,13.93
2023-01-22T19:58:04.274Z,13.87
2023-01-22T20:00:32.042Z,14.43
2023-01-22T20:02:58.834Z,16.38
2023-01-22T20:05:25.492Z,15.00
2023-01-22T20:07:55.676Z,13.00
2023-01-22T20:10:22.307Z,14.55
2023-01-22T20:12:51.724Z,14.60
2023-01-22T20:17:45.295Z,18.40
2023-01-22T20:20:12.281Z,18.48
2023-01-22T20:22:39.005Z,17.77
2023-01-22T20:25:08.091Z,14.65
2023-01-22T20:27:35.296Z,16.73
2023-01-22T20:30:02.446Z,17.75
2023-01-22T20:32:30.396Z,15.68
2023-01-22T20:34:57.154Z,17.23
2023-01-22T20:37:24.339Z,16.63
2023-01-22T20:39:50.965Z,16.10
2023-01-22T20:42:17.738Z,15.70
2023-01-22T20:44:45.953Z,18.08
2023-01-22T20:47:12.827Z,19.15
2023-01-22T20:49:39.401Z,16.95
2023-01-22T20:52:06.407Z,19.08
2023-01-22T20:54:34.080Z,18.35
2023-01-22T20:57:01.966Z,20.55
2023-01-22T20:59:28.725Z,18.80
2023-01-22T21:01:55.466Z,28.77
2023-01-22T21:04:22.110Z,23.00
2023-01-22T21:06:48.865Z,18.52
2023-01-22T21:09:15.625Z,16.80
2023-01-22T21:11:43.408Z,16.58
2023-01-22T21:14:16.027Z,16.25
2023-01-22T21:16:44.505Z,17.27
2023-01-22T21:19:18.081Z,17.47
2023-01-22T21:21:45.261Z,19.05
2023-01-22T21:24:12.032Z,19.15
2023-01-22T21:26:39.012Z,22.13
2023-01-22T21:29:09.142Z,20.60
2023-01-22T21:31:36.976Z,21.98
2023-01-22T21:34:05.888Z,24.77
2023-01-22T21:36:37.044Z,20.13
2023-01-22T21:39:06.558Z,24.02
2023-01-22T21:41:33.482Z,21.05
2023-01-22T21:44:18.775Z,20.10
2023-01-22T21:46:47.114Z,23.17
2023-01-22T21:49:17.708Z,24.33
2023-01-22T21:51:45.085Z,23.38
2023-01-22T21:54:13.739Z,24.73
2023-01-22T21:56:40.463Z,25.25
2023-01-22T21:59:07.650Z,23.60
2023-01-22T22:01:35.060Z,24.38
2023-01-22T22:04:03.729Z,24.25
2023-01-22T22:06:32.015Z,23.15
2023-01-22T22:09:01.119Z,25.02
2023-01-22T22:11:28.123Z,22.25
2023-01-22T22:13:55.179Z,23.70
2023-01-22T22:16:22.402Z,22.85
2023-01-22T22:18:49.148Z,24.05
2023-01-22T22:21:16.337Z,23.35
2023-01-22T22:23:42.945Z,21.83
2023-01-22T22:26:11.152Z,21.15
2023-01-22T22:28:37.913Z,21.08
2023-01-22T22:31:12.841Z,19.35
2023-01-22T22:33:47.319Z,19.75
2023-01-22T22:36:16.545Z,19.95
2023-01-22T22:38:43.333Z,19.65
2023-01-22T22:41:19.487Z,17.27
2023-01-22T22:43:48.395Z,14.55
2023-01-22T22:46:17.901Z,15.32
2023-01-22T22:48:46.035Z,15.30
2023-01-22T22:51:17.111Z,13.65
2023-01-22T22:53:44.353Z,14.02
2023-01-22T22:56:11.572Z,15.80
2023-01-22T22:58:39.007Z,15.73
2023-01-22T23:01:10.367Z,19.52
2023-01-22T23:03:37.905Z,18.75
2023-01-22T23:06:11.909Z,19.52
2023-01-22T23:08:40.860Z,20.58
2023-01-22T23:11:09.823Z,17.50
2023-01-22T23:13:37.592Z,18.42
2023-01-22T23:16:11.149Z,16.67
2023-01-22T23:18:37.985Z,18.27
2023-01-22T23:21:10.052Z,16.92
2023-01-22T23:23:37.003Z,14.82
2023-01-22T23:26:07.498Z,13.63
2023-01-22T23:28:34.209Z,13.30
2023-01-22T23:31:06.570Z,15.98
2023-01-22T23:33:33.571Z,14.63
2023-01-22T23:36:05.362Z,15.88
2023-01-22T23:38:32.244Z,15.05
2023-01-22T23:41:00.694Z,14.50
2023-01-22T23:43:28.100Z,11.93
2023-01-22T23:45:54.989Z,12.85
2023-01-22T23:48:22.505Z,13.07
2023-01-22T23:50:51.121Z,13.48
2023-01-22T23:53:17.924Z,12.38
2023-01-22T23:55:44.717Z,9.18
2023-01-22T23:58:11.464Z,9.35
